createdAt,value
2023-04-06T00:01:19.961Z,100784.75
2023-04-06T00:06:26.423Z,100777.16
2023-04-06T00:11:31.319Z,100777.53
2023-04-06T00:16:36.466Z,100797.22
2023-04-06T00:21:42.306Z,100784.50
2023-04-06T00:26:47.464Z,100791.44
2023-04-06T00:31:52.182Z,100809.16
2023-04-06T00:36:58.956Z,100786.75
2023-04-06T00:42:12.343Z,100779.69
2023-04-06T00:47:16.902Z,100782.63
2023-04-06T00:52:22.233Z,100790.78
2023-04-06T00:57:27.837Z,100792.81
2023-04-06T01:02:34.399Z,100788.06
2023-04-06T01:07:40.436Z,100780.81
2023-04-06T01:12:52.908Z,100775.75
2023-04-06T01:18:19.497Z,100770.16
2023-04-06T01:23:34.995Z,100776.31
2023-04-06T01:28:41.798Z,100753.72
2023-04-06T01:34:01.542Z,100749.84
2023-04-06T01:39:07.401Z,100755.03
2023-04-06T01:44:16.654Z,100748.22
2023-04-06T01:49:24.241Z,100757.34
2023-04-06T01:54:33.171Z,100753.59
2023-04-06T01:59:49.444Z,100748.56
2023-04-06T02:05:18.016Z,100746.78
2023-04-06T02:10:24.413Z,100747.84
2023-04-06T02:15:30.631Z,100760.91
2023-04-06T02:20:38.329Z,100745.75
2023-04-06T02:25:44.027Z,100751.66
2023-04-06T02:30:49.301Z,100755.53
2023-04-06T02:35:55.839Z,100746.91
2023-04-06T02:41:01.813Z,100743.78
2023-04-06T02:46:09.757Z,100743.59
2023-04-06T02:51:17.385Z,100731.84
2023-04-06T02:56:28.914Z,100722.44
2023-04-06T03:01:34.665Z,100719.84
2023-04-06T03:06:42.773Z,100701.75
2023-04-06T03:12:00.759Z,100695.59
2023-04-06T03:17:08.409Z,100703.16
2023-04-06T03:22:15.060Z,100712.03
2023-04-06T03:27:21.538Z,100691.59
2023-04-06T03:32:31.468Z,100686.00
2023-04-06T03:37:38.033Z,100681.53
2023-04-06T03:42:44.838Z,100657.78
2023-04-06T03:47:53.219Z,100680.53
2023-04-06T03:52:58.803Z,100653.34
2023-04-06T03:58:06.033Z,100664.84
2023-04-06T04:03:11.665Z,100648.69
2023-04-06T04:08:17.109Z,100635.34
2023-04-06T04:13:22.871Z,100622.19
2023-04-06T04:18:30.101Z,100607.00
2023-04-06T04:23:37.320Z,100633.09
2023-04-06T04:28:42.939Z,100604.25
2023-04-06T04:33:48.528Z,100588.41
2023-04-06T04:39:03.419Z,100587.47
2023-04-06T04:44:14.748Z,100582.28
2023-04-06T04:49:20.547Z,100583.59
2023-04-06T04:54:27.876Z,100573.66
2023-04-06T04:59:35.297Z,100565.97
2023-04-06T05:04:49.865Z,100558.59
2023-04-06T05:09:59.650Z,100555.22
2023-04-06T05:15:09.312Z,100548.56
2023-04-06T05:20:16.042Z,100549.50
2023-04-06T05:25:26.963Z,100537.44
2023-04-06T05:30:37.930Z,100529.84
2023-04-06T05:35:43.847Z,100523.25
2023-04-06T05:40:51.547Z,100513.56
2023-04-06T05:46:02.587Z,100519.75
2023-04-06T05:51:10.894Z,100519.16
2023-04-06T05:56:26.098Z,100506.00
2023-04-06T06:01:31.737Z,100506.41
2023-04-06T06:06:37.929Z,100478.84
2023-04-06T06:11:53.373Z,100470.22
2023-04-06T06:17:02.958Z,100474.75
2023-04-06T06:22:08.576Z,100460.31
2023-04-06T06:27:18.568Z,100462.78
2023-04-06T06:32:25.125Z,100463.00
2023-04-06T06:37:32.420Z,100452.53
2023-04-06T06:42:40.081Z,100451.72
2023-04-06T06:48:02.481Z,100444.28
2023-04-06T06:53:08.235Z,100444.47
2023-04-06T06:58:13.514Z,100448.94
2023-04-06T07:03:18.951Z,100450.53
2023-04-06T07:08:25.197Z,100455.84
2023-04-06T07:13:30.128Z,100454.81
2023-04-06T07:18:40.636Z,100446.78
2023-04-06T07:23:47.087Z,100456.63
2023-04-06T07:28:52.312Z,100447.41
2023-04-06T07:33:58.547Z,100447.19
2023-04-06T07:39:03.660Z,100435.50
2023-04-06T07:44:09.730Z,100432.06
2023-04-06T07:49:15.760Z,100437.22
2023-04-06T07:54:21.987Z,100440.91
2023-04-06T07:59:27.046Z,100435.97
2023-04-06T08:04:33.086Z,100433.22
2023-04-06T08:09:37.878Z,100429.59
2023-04-06T08:14:42.614Z,100431.09
2023-04-06T08:19:47.792Z,100437.66
2023-04-06T08:24:53.304Z,100435.00
2023-04-06T08:29:58.200Z,100445.28
2023-04-06T08:35:03.021Z,100438.31
2023-04-06T08:40:08.628Z,100445.75
2023-04-06T08:45:14.070Z,100444.75
2023-04-06T08:50:20.422Z,100445.13
2023-04-06T08:55:25.829Z,100440.53
2023-04-06T09:00:32.027Z,100447.47
2023-04-06T09:05:37.893Z,100431.50
2023-04-06T09:10:44.571Z,100444.06
2023-04-06T09:15:49.175Z,100462.63
2023-04-06T09:21:03.470Z,100468.81
2023-04-06T09:26:15.990Z,100484.13
2023-04-06T09:31:25.803Z,100470.56
2023-04-06T09:36:40.642Z,100510.72
2023-04-06T09:41:51.410Z,100492.97
2023-04-06T09:47:00.959Z,100521.44
2023-04-06T09:52:09.476Z,100498.91
2023-04-06T09:57:27.015Z,100516.78
2023-04-06T10:02:37.047Z,100510.47
2023-04-06T10:07:57.198Z,100567.38
2023-04-06T10:13:04.717Z,100560.88
2023-04-06T10:18:09.975Z,100574.69
2023-04-06T10:23:18.207Z,100608.66
2023-04-06T10:28:23.077Z,100598.31
2023-04-06T10:33:28.632Z,100612.22
2023-04-06T10:38:42.084Z,100616.09
2023-04-06T10:43:59.534Z,100618.16
2023-04-06T10:49:15.712Z,100636.88
2023-04-06T10:54:21.458Z,100657.56
2023-04-06T10:59:27.670Z,100679.94
2023-04-06T11:04:33.292Z,100682.31
2023-04-06T11:09:38.854Z,100704.81
2023-04-06T11:14:43.979Z,100702.00
2023-04-06T11:19:48.263Z,100713.03
2023-04-06T11:24:53.476Z,100726.59
2023-04-06T11:29:58.131Z,100738.75
2023-04-06T11:35:02.962Z,100766.28
2023-04-06T11:40:11.772Z,100787.41
2023-04-06T11:45:18.794Z,100776.13
2023-04-06T11:50:23.554Z,100807.97
2023-04-06T11:55:29.576Z,100821.91
2023-04-06T12:00:36.942Z,100826.34
2023-04-06T12:05:42.588Z,100835.28
2023-04-06T12:10:47.262Z,100859.78
2023-04-06T12:15:53.631Z,100883.16
2023-04-06T12:20:58.437Z,100886.28
2023-04-06T12:26:05.508Z,100907.44
2023-04-06T12:31:18.662Z,100918.88
2023-04-06T12:36:24.920Z,100945.31
2023-04-06T12:41:31.941Z,100951.94
2023-04-06T12:46:40.351Z,100985.34
2023-04-06T12:51:48.610Z,100974.38
2023-04-06T12:56:54.962Z,100998.47
2023-04-06T13:02:01.113Z,101008.03
2023-04-06T13:07:06.115Z,101022.06
2023-04-06T13:12:13.792Z,101035.16
2023-04-06T13:17:19.167Z,101047.34
2023-04-06T13:22:24.043Z,101095.69
2023-04-06T13:27:29.668Z,101086.88
2023-04-06T13:32:36.768Z,101095.06
2023-04-06T13:37:43.200Z,101093.44
2023-04-06T13:42:48.575Z,101094.06
2023-04-06T13:47:54.392Z,101099.44
2023-04-06T13:53:00.306Z,101139.19
2023-04-06T13:58:05.272Z,101144.66
2023-04-06T14:03:10.421Z,101123.66
2023-04-06T14:08:16.793Z,101139.00
2023-04-06T14:13:23.470Z,101151.28
2023-04-06T14:18:31.395Z,101149.47
2023-04-06T14:23:36.410Z,101160.94
2023-04-06T14:28:41.668Z,101157.06
2023-04-06T14:33:48.117Z,101169.88
2023-04-06T14:38:54.376Z,101176.59
2023-04-06T14:43:59.467Z,101177.56
2023-04-06T14:49:04.419Z,101177.00
2023-04-06T14:54:12.476Z,101189.09
2023-04-06T14:59:19.406Z,101191.19
2023-04-06T15:04:24.401Z,101187.72
2023-04-06T15:09:29.465Z,101197.84
2023-04-06T15:14:34.931Z,101197.84
2023-04-06T15:19:40.872Z,101215.09
2023-04-06T15:24:47.439Z,101213.69
2023-04-06T15:29:52.735Z,101233.53
2023-04-06T15:35:00.517Z,101261.19
2023-04-06T15:40:10.426Z,101230.75
2023-04-06T15:45:15.462Z,101240.88
2023-04-06T15:50:21.610Z,101234.16
2023-04-06T15:55:26.786Z,101239.03
2023-04-06T16:00:32.730Z,101241.25
2023-04-06T16:05:48.312Z,101240.81
2023-04-06T16:11:02.365Z,101250.22
2023-04-06T16:16:08.113Z,101282.66
2023-04-06T16:21:20.704Z,101264.03
2023-04-06T16:26:25.604Z,101276.91
2023-04-06T16:31:30.348Z,101275.91
2023-04-06T16:36:35.876Z,101275.00
2023-04-06T16:41:41.193Z,101280.34
2023-04-06T16:46:46.441Z,101283.16
2023-04-06T16:51:51.506Z,101285.03
2023-04-06T16:56:56.380Z,101300.88
2023-04-06T17:02:01.289Z,101295.53
2023-04-06T17:07:06.324Z,101292.81
2023-04-06T17:12:11.496Z,101305.50
2023-04-06T17:17:16.344Z,101301.34
2023-04-06T17:22:22.951Z,101305.75
2023-04-06T17:27:29.267Z,101311.28
2023-04-06T17:32:35.302Z,101306.38
2023-04-06T17:37:40.398Z,101310.81
2023-04-06T17:42:45.233Z,101306.88
2023-04-06T17:47:49.992Z,101323.75
2023-04-06T17:52:54.745Z,101345.56
2023-04-06T17:57:59.647Z,101316.25
2023-04-06T18:03:04.475Z,101320.63
2023-04-06T18:08:09.212Z,101307.63
2023-04-06T18:13:13.363Z,101312.03
2023-04-06T18:18:19.771Z,101314.94
2023-04-06T18:23:24.707Z,101349.94
2023-04-06T18:28:29.751Z,101308.56
2023-04-06T18:33:35.054Z,101321.00
2023-04-06T18:38:44.398Z,101310.47
2023-04-06T18:43:49.372Z,101328.94
2023-04-06T18:48:54.391Z,101322.38
2023-04-06T18:54:00.561Z,101327.50
2023-04-06T18:59:05.535Z,101331.84
2023-04-06T19:04:10.582Z,101329.41
2023-04-06T19:09:15.610Z,101337.22
2023-04-06T19:14:20.083Z,101343.06
2023-04-06T19:19:24.981Z,101349.25
2023-04-06T19:24:31.036Z,101344.66
2023-04-06T19:29:39.945Z,101349.00
2023-04-06T19:34:46.616Z,101356.94
2023-04-06T19:39:51.344Z,101355.69
2023-04-06T19:44:57.453Z,101359.78
2023-04-06T19:50:04.290Z,101365.34
2023-04-06T19:55:10.446Z,101375.34
2023-04-06T20:00:15.573Z,101373.34
2023-04-06T20:05:20.229Z,101375.03
2023-04-06T20:10:25.111Z,101385.84
2023-04-06T20:15:30.866Z,101390.56
2023-04-06T20:20:35.602Z,101396.13
2023-04-06T20:25:41.702Z,101403.47
2023-04-06T20:30:46.665Z,101398.91
2023-04-06T20:36:02.453Z,101408.13
2023-04-06T20:41:09.634Z,101407.06
2023-04-06T20:46:20.915Z,101414.19
2023-04-06T20:51:26.900Z,101412.72
2023-04-06T20:56:33.283Z,101430.09
2023-04-06T21:01:38.684Z,101431.25
2023-04-06T21:06:45.174Z,101442.03
2023-04-06T21:11:50.211Z,101443.19
2023-04-06T21:16:57.068Z,101456.47
2023-04-06T21:22:02.421Z,101463.69
2023-04-06T21:27:07.713Z,101469.13
2023-04-06T21:32:12.930Z,101465.75
2023-04-06T21:37:19.267Z,101479.06
2023-04-06T21:42:25.748Z,101491.41
2023-04-06T21:47:31.120Z,101528.47
2023-04-06T21:52:36.414Z,101506.06
2023-04-06T21:57:41.612Z,101543.72
2023-04-06T22:02:48.405Z,101561.59
2023-04-06T22:07:54.603Z,101517.41
2023-04-06T22:12:59.975Z,101523.59
2023-04-06T22:18:05.234Z,101525.97
2023-04-06T22:23:12.560Z,101527.03
2023-04-06T22:28:17.997Z,101541.06
2023-04-06T22:33:23.333Z,101537.47
2023-04-06T22:38:28.463Z,101542.00
2023-04-06T22:43:33.626Z,101550.84
2023-04-06T22:48:38.781Z,101555.16
2023-04-06T22:53:44.214Z,101560.22
2023-04-06T22:58:49.466Z,101574.19
2023-04-06T23:03:54.674Z,101564.22
2023-04-06T23:09:00.053Z,101585.75
2023-04-06T23:14:05.224Z,101580.16
2023-04-06T23:19:11.291Z,101620.13
2023-04-06T23:24:17.032Z,101583.91
2023-04-06T23:29:22.440Z,101591.53
2023-04-06T23:34:28.567Z,101592.13
2023-04-06T23:39:33.907Z,101585.84
2023-04-06T23:44:39.203Z,101599.56
2023-04-06T23:49:44.650Z,101610.78
2023-04-06T23:54:49.777Z,101606.06
2023-04-06T23:59:54.962Z,101616.06
